sensor_id;sensor_type;location;lat;lon;timestamp;P1;durP1;ratioP1;P2;durP2;ratioP2
57111;SDS011;42992;49.084;19.300;2023-03-04T00:01:43;59.10;;;28.17;;
57111;SDS011;42992;49.084;19.300;2023-03-04T00:04:08;47.35;;;22.05;;
57111;SDS011;42992;49.084;19.300;2023-03-04T00:06:34;38.88;;;18.05;;
57111;SDS011;42992;49.084;19.300;2023-03-04T00:09:00;46.72;;;20.58;;
57111;SDS011;42992;49.084;19.300;2023-03-04T00:11:28;49.35;;;20.10;;
57111;SDS011;42992;49.084;19.300;2023-03-04T00:13:54;40.80;;;18.23;;
57111;SDS011;42992;49.084;19.300;2023-03-04T00:16:20;39.58;;;18.13;;
57111;SDS011;42992;49.084;19.300;2023-03-04T00:18:46;37.25;;;17.33;;
57111;SDS011;42992;49.084;19.300;2023-03-04T00:21:15;60.72;;;23.65;;
57111;SDS011;42992;49.084;19.300;2023-03-04T00:23:40;63.28;;;27.30;;
57111;SDS011;42992;49.084;19.300;2023-03-04T00:26:07;61.80;;;27.10;;
57111;SDS011;42992;49.084;19.300;2023-03-04T00:28:33;60.35;;;25.42;;
57111;SDS011;42992;49.084;19.300;2023-03-04T00:31:02;39.83;;;17.60;;
57111;SDS011;42992;49.084;19.300;2023-03-04T00:33:28;34.88;;;15.57;;
57111;SDS011;42992;49.084;19.300;2023-03-04T00:35:55;35.95;;;16.08;;
57111;SDS011;42992;49.084;19.300;2023-03-04T00:38:21;37.13;;;16.83;;
57111;SDS011;42992;49.084;19.300;2023-03-04T00:40:47;40.22;;;18.60;;
57111;SDS011;42992;49.084;19.300;2023-03-04T00:43:14;68.07;;;28.75;;
57111;SDS011;42992;49.084;19.300;2023-03-04T00:45:39;59.47;;;26.75;;
57111;SDS011;42992;49.084;19.300;2023-03-04T00:48:06;53.72;;;24.58;;
57111;SDS011;42992;49.084;19.300;2023-03-04T00:50:33;50.63;;;24.15;;
57111;SDS011;42992;49.084;19.300;2023-03-04T00:52:59;53.08;;;21.00;;
57111;SDS011;42992;49.084;19.300;2023-03-04T00:55:24;46.90;;;21.17;;
57111;SDS011;42992;49.084;19.300;2023-03-04T00:57:49;51.33;;;22.77;;
57111;SDS011;42992;49.084;19.300;2023-03-04T01:00:17;51.97;;;21.98;;
57111;SDS011;42992;49.084;19.300;2023-03-04T01:02:44;54.30;;;21.13;;
57111;SDS011;42992;49.084;19.300;2023-03-04T01:05:10;59.45;;;22.90;;
57111;SDS011;42992;49.084;19.300;2023-03-04T01:07:35;50.40;;;21.85;;
57111;SDS011;42992;49.084;19.300;2023-03-04T01:10:02;53.08;;;21.48;;
57111;SDS011;42992;49.084;19.300;2023-03-04T01:12:28;52.17;;;21.52;;
57111;SDS011;42992;49.084;19.300;2023-03-04T01:14:54;54.72;;;22.00;;
57111;SDS011;42992;49.084;19.300;2023-03-04T01:17:20;47.88;;;21.13;;
57111;SDS011;42992;49.084;19.300;2023-03-04T01:19:46;47.78;;;21.33;;
57111;SDS011;42992;49.084;19.300;2023-03-04T01:22:11;44.28;;;20.40;;
57111;SDS011;42992;49.084;19.300;2023-03-04T01:24:39;50.95;;;20.73;;
57111;SDS011;42992;49.084;19.300;2023-03-04T01:27:04;51.03;;;21.52;;
57111;SDS011;42992;49.084;19.300;2023-03-04T01:29:30;47.90;;;21.55;;
57111;SDS011;42992;49.084;19.300;2023-03-04T01:31:55;47.35;;;21.77;;
57111;SDS011;42992;49.084;19.300;2023-03-04T01:34:21;51.65;;;22.05;;
57111;SDS011;42992;49.084;19.300;2023-03-04T01:36:46;45.63;;;20.23;;
57111;SDS011;42992;49.084;19.300;2023-03-04T01:39:12;42.10;;;19.25;;
57111;SDS011;42992;49.084;19.300;2023-03-04T01:41:37;46.30;;;21.55;;
57111;SDS011;42992;49.084;19.300;2023-03-04T01:44:02;48.33;;;19.85;;
57111;SDS011;42992;49.084;19.300;2023-03-04T01:46:28;49.70;;;21.08;;
57111;SDS011;42992;49.084;19.300;2023-03-04T01:48:55;50.88;;;21.90;;
57111;SDS011;42992;49.084;19.300;2023-03-04T01:51:21;50.05;;;20.52;;
57111;SDS011;42992;49.084;19.300;2023-03-04T01:53:47;41.83;;;18.02;;
57111;SDS011;42992;49.084;19.300;2023-03-04T01:56:33;45.42;;;20.08;;
57111;SDS011;42992;49.084;19.300;2023-03-04T02:01:33;37.30;;;15.52;;
57111;SDS011;42992;49.084;19.300;2023-03-04T02:03:59;38.03;;;17.58;;
57111;SDS011;42992;49.084;19.300;2023-03-04T02:06:25;47.83;;;20.85;;
57111;SDS011;42992;49.084;19.300;2023-03-04T02:08:50;51.30;;;22.33;;
57111;SDS011;42992;49.084;19.300;2023-03-04T02:11:16;52.17;;;22.13;;
57111;SDS011;42992;49.084;19.300;2023-03-04T02:13:41;67.97;;;26.70;;
57111;SDS011;42992;49.084;19.300;2023-03-04T02:16:07;58.85;;;23.92;;
57111;SDS011;42992;49.084;19.300;2023-03-04T02:18:32;57.47;;;23.60;;
57111;SDS011;42992;49.084;19.300;2023-03-04T02:23:46;53.67;;;24.73;;
57111;SDS011;42992;49.084;19.300;2023-03-04T02:26:26;61.67;;;23.35;;
57111;SDS011;42992;49.084;19.300;2023-03-04T02:28:52;37.33;;;16.83;;
57111;SDS011;42992;49.084;19.300;2023-03-04T02:31:22;44.58;;;17.45;;
57111;SDS011;42992;49.084;19.300;2023-03-04T02:33:49;45.65;;;19.83;;
57111;SDS011;42992;49.084;19.300;2023-03-04T02:36:14;42.42;;;18.80;;
57111;SDS011;42992;49.084;19.300;2023-03-04T02:38:40;51.65;;;20.67;;
57111;SDS011;42992;49.084;19.300;2023-03-04T02:41:05;49.13;;;19.15;;
57111;SDS011;42992;49.084;19.300;2023-03-04T02:43:33;47.35;;;20.10;;
57111;SDS011;42992;49.084;19.300;2023-03-04T02:45:59;50.92;;;19.27;;
57111;SDS011;42992;49.084;19.300;2023-03-04T02:48:24;44.63;;;18.67;;
57111;SDS011;42992;49.084;19.300;2023-03-04T02:50:50;41.42;;;17.67;;
57111;SDS011;42992;49.084;19.300;2023-03-04T02:53:16;44.63;;;19.05;;
57111;SDS011;42992;49.084;19.300;2023-03-04T02:55:42;38.08;;;18.40;;
57111;SDS011;42992;49.084;19.300;2023-03-04T02:58:09;41.42;;;17.50;;
57111;SDS011;42992;49.084;19.300;2023-03-04T03:00:34;40.30;;;17.83;;
57111;SDS011;42992;49.084;19.300;2023-03-04T03:03:02;38.78;;;17.95;;
57111;SDS011;42992;49.084;19.300;2023-03-04T03:05:28;44.47;;;19.27;;
57111;SDS011;42992;49.084;19.300;2023-03-04T03:07:55;46.10;;;18.77;;
57111;SDS011;42992;49.084;19.300;2023-03-04T03:10:21;45.60;;;18.35;;
57111;SDS011;42992;49.084;19.300;2023-03-04T03:12:47;47.28;;;19.45;;
57111;SDS011;42992;49.084;19.300;2023-03-04T03:15:12;43.90;;;18.52;;
57111;SDS011;42992;49.084;19.300;2023-03-04T03:17:38;46.65;;;18.70;;
57111;SDS011;42992;49.084;19.300;2023-03-04T03:20:05;44.78;;;19.25;;
57111;SDS011;42992;49.084;19.300;2023-03-04T03:22:30;42.47;;;19.25;;
57111;SDS011;42992;49.084;19.300;2023-03-04T03:24:56;48.40;;;19.85;;
57111;SDS011;42992;49.084;19.300;2023-03-04T03:27:21;46.30;;;19.27;;
57111;SDS011;42992;49.084;19.300;2023-03-04T03:29:46;45.33;;;18.77;;
57111;SDS011;42992;49.084;19.300;2023-03-04T03:32:13;42.75;;;19.65;;
57111;SDS011;42992;49.084;19.300;2023-03-04T03:34:39;42.33;;;17.60;;
57111;SDS011;42992;49.084;19.300;2023-03-04T03:37:04;40.85;;;18.02;;
57111;SDS011;42992;49.084;19.300;2023-03-04T03:39:30;42.97;;;17.40;;
57111;SDS011;42992;49.084;19.300;2023-03-04T03:41:56;38.67;;;17.08;;
57111;SDS011;42992;49.084;19.300;2023-03-04T03:44:21;40.67;;;17.27;;
57111;SDS011;42992;49.084;19.300;2023-03-04T03:46:46;37.95;;;15.65;;
57111;SDS011;42992;49.084;19.300;2023-03-04T03:49:13;42.63;;;18.13;;
57111;SDS011;42992;49.084;19.300;2023-03-04T03:51:42;39.72;;;17.30;;
57111;SDS011;42992;49.084;19.300;2023-03-04T03:54:07;39.70;;;15.27;;
57111;SDS011;42992;49.084;19.300;2023-03-04T03:56:32;37.03;;;15.45;;
57111;SDS011;42992;49.084;19.300;2023-03-04T03:58:58;36.65;;;14.98;;
57111;SDS011;42992;49.084;19.300;2023-03-04T04:01:24;35.50;;;14.77;;
57111;SDS011;42992;49.084;19.300;2023-03-04T04:03:49;31.77;;;14.85;;
57111;SDS011;42992;49.084;19.300;2023-03-04T04:06:14;31.90;;;14.43;;
57111;SDS011;42992;49.084;19.300;2023-03-04T04:08:40;35.55;;;15.77;;
57111;SDS011;42992;49.084;19.300;2023-03-04T04:11:07;33.25;;;14.45;;
57111;SDS011;42992;49.084;19.300;2023-03-04T04:13:33;32.47;;;14.70;;
57111;SDS011;42992;49.084;19.300;2023-03-04T04:15:59;33.30;;;14.27;;
57111;SDS011;42992;49.084;19.300;2023-03-04T04:18:24;31.90;;;13.95;;
57111;SDS011;42992;49.084;19.300;2023-03-04T04:20:50;28.45;;;13.15;;
57111;SDS011;42992;49.084;19.300;2023-03-04T04:23:16;38.95;;;14.60;;
57111;SDS011;42992;49.084;19.300;2023-03-04T04:25:41;35.25;;;15.32;;
57111;SDS011;42992;49.084;19.300;2023-03-04T04:28:07;37.85;;;16.10;;
57111;SDS011;42992;49.084;19.300;2023-03-04T04:30:32;38.05;;;16.08;;
57111;SDS011;42992;49.084;19.300;2023-03-04T04:32:57;40.40;;;16.77;;
57111;SDS011;42992;49.084;19.300;2023-03-04T04:35:25;37.25;;;17.17;;
57111;SDS011;42992;49.084;19.300;2023-03-04T04:37:51;36.05;;;16.05;;
57111;SDS011;42992;49.084;19.300;2023-03-04T04:40:16;37.97;;;16.25;;
57111;SDS011;42992;49.084;19.300;2023-03-04T04:42:41;31.15;;;14.10;;
57111;SDS011;42992;49.084;19.300;2023-03-04T04:45:07;32.33;;;14.23;;
57111;SDS011;42992;49.084;19.300;2023-03-04T04:47:32;33.22;;;14.65;;
57111;SDS011;42992;49.084;19.300;2023-03-04T04:49:59;30.67;;;14.02;;
57111;SDS011;42992;49.084;19.300;2023-03-04T04:52:24;31.83;;;13.90;;
57111;SDS011;42992;49.084;19.300;2023-03-04T04:54:51;34.30;;;14.43;;
57111;SDS011;42992;49.084;19.300;2023-03-04T04:57:16;25.58;;;12.63;;
57111;SDS011;42992;49.084;19.300;2023-03-04T04:59:41;29.98;;;12.35;;
57111;SDS011;42992;49.084;19.300;2023-03-04T05:02:07;30.23;;;13.32;;
57111;SDS011;42992;49.084;19.300;2023-03-04T05:04:32;33.45;;;14.82;;
57111;SDS011;42992;49.084;19.300;2023-03-04T05:06:58;37.75;;;15.82;;
57111;SDS011;42992;49.084;19.300;2023-03-04T05:09:23;44.35;;;16.60;;
57111;SDS011;42992;49.084;19.300;2023-03-04T05:11:48;37.15;;;15.45;;
57111;SDS011;42992;49.084;19.300;2023-03-04T05:14:14;37.67;;;16.35;;
57111;SDS011;42992;49.084;19.300;2023-03-04T05:16:39;39.72;;;18.55;;
57111;SDS011;42992;49.084;19.300;2023-03-04T05:19:05;40.85;;;18.38;;
57111;SDS011;42992;49.084;19.300;2023-03-04T05:21:30;48.13;;;20.10;;
57111;SDS011;42992;49.084;19.300;2023-03-04T05:23:56;42.45;;;17.83;;
57111;SDS011;42992;49.084;19.300;2023-03-04T05:26:21;42.65;;;16.83;;
57111;SDS011;42992;49.084;19.300;2023-03-04T05:28:47;37.47;;;17.90;;
57111;SDS011;42992;49.084;19.300;2023-03-04T05:31:12;44.03;;;17.58;;
57111;SDS011;42992;49.084;19.300;2023-03-04T05:33:39;39.80;;;18.15;;
57111;SDS011;42992;49.084;19.300;2023-03-04T05:36:05;42.67;;;18.65;;
57111;SDS011;42992;49.084;19.300;2023-03-04T05:38:31;39.45;;;18.17;;
57111;SDS011;42992;49.084;19.300;2023-03-04T05:40:58;43.50;;;17.30;;
57111;SDS011;42992;49.084;19.300;2023-03-04T05:43:27;35.00;;;15.27;;
57111;SDS011;42992;49.084;19.300;2023-03-04T05:45:52;33.00;;;14.98;;
57111;SDS011;42992;49.084;19.300;2023-03-04T05:48:18;34.08;;;14.65;;
57111;SDS011;42992;49.084;19.300;2023-03-04T05:50:44;37.78;;;14.93;;
57111;SDS011;42992;49.084;19.300;2023-03-04T05:53:09;34.15;;;15.45;;
57111;SDS011;42992;49.084;19.300;2023-03-04T05:55:34;49.00;;;19.58;;
57111;SDS011;42992;49.084;19.300;2023-03-04T05:58:00;68.68;;;27.38;;
57111;SDS011;42992;49.084;19.300;2023-03-04T06:00:26;60.65;;;25.17;;
57111;SDS011;42992;49.084;19.300;2023-03-04T06:02:51;74.57;;;29.83;;
57111;SDS011;42992;49.084;19.300;2023-03-04T06:05:17;38.63;;;17.67;;
57111;SDS011;42992;49.084;19.300;2023-03-04T06:07:43;76.22;;;29.15;;
57111;SDS011;42992;49.084;19.300;2023-03-04T06:10:09;66.80;;;31.58;;
57111;SDS011;42992;49.084;19.300;2023-03-04T06:12:34;73.20;;;28.95;;
57111;SDS011;42992;49.084;19.300;2023-03-04T06:15:00;45.90;;;21.45;;
57111;SDS011;42992;49.084;19.300;2023-03-04T06:17:27;70.78;;;28.08;;
57111;SDS011;42992;49.084;19.300;2023-03-04T06:19:53;60.10;;;28.70;;
57111;SDS011;42992;49.084;19.300;2023-03-04T06:22:18;63.90;;;28.75;;
57111;SDS011;42992;49.084;19.300;2023-03-04T06:24:44;62.47;;;28.45;;
57111;SDS011;42992;49.084;19.300;2023-03-04T06:27:09;54.97;;;25.67;;
57111;SDS011;42992;49.084;19.300;2023-03-04T06:29:35;58.78;;;25.83;;
57111;SDS011;42992;49.084;19.300;2023-03-04T06:32:02;56.13;;;22.70;;
57111;SDS011;42992;49.084;19.300;2023-03-04T06:34:28;68.68;;;22.98;;
57111;SDS011;42992;49.084;19.300;2023-03-04T06:36:54;46.22;;;21.13;;
57111;SDS011;42992;49.084;19.300;2023-03-04T06:39:19;47.80;;;20.65;;
57111;SDS011;42992;49.084;19.300;2023-03-04T06:41:45;44.85;;;19.75;;
57111;SDS011;42992;49.084;19.300;2023-03-04T06:44:10;50.10;;;20.58;;
57111;SDS011;42992;49.084;19.300;2023-03-04T06:46:37;49.45;;;20.73;;
57111;SDS011;42992;49.084;19.300;2023-03-04T06:51:30;47.03;;;21.52;;
57111;SDS011;42992;49.084;19.300;2023-03-04T06:53:55;46.30;;;21.40;;
57111;SDS011;42992;49.084;19.300;2023-03-04T06:56:20;44.97;;;22.73;;
57111;SDS011;42992;49.084;19.300;2023-03-04T06:58:47;48.72;;;21.98;;
57111;SDS011;42992;49.084;19.300;2023-03-04T07:01:25;50.03;;;21.08;;
57111;SDS011;42992;49.084;19.300;2023-03-04T07:03:53;48.78;;;24.05;;
57111;SDS011;42992;49.084;19.300;2023-03-04T07:06:19;47.97;;;21.98;;
57111;SDS011;42992;49.084;19.300;2023-03-04T07:08:45;53.53;;;21.15;;
57111;SDS011;42992;49.084;19.300;2023-03-04T07:11:11;50.28;;;22.83;;
57111;SDS011;42992;49.084;19.300;2023-03-04T07:13:38;37.28;;;18.13;;
57111;SDS011;42992;49.084;19.300;2023-03-04T07:16:04;40.60;;;19.90;;
57111;SDS011;42992;49.084;19.300;2023-03-04T07:18:30;43.28;;;18.55;;
57111;SDS011;42992;49.084;19.300;2023-03-04T07:20:56;45.00;;;20.92;;
57111;SDS011;42992;49.084;19.300;2023-03-04T07:23:29;43.67;;;19.80;;
57111;SDS011;42992;49.084;19.300;2023-03-04T07:25:55;46.25;;;20.52;;
57111;SDS011;42992;49.084;19.300;2023-03-04T07:28:20;43.50;;;19.52;;
57111;SDS011;42992;49.084;19.300;2023-03-04T07:30:45;46.28;;;19.75;;
57111;SDS011;42992;49.084;19.300;2023-03-04T07:33:11;43.35;;;18.88;;
57111;SDS011;42992;49.084;19.300;2023-03-04T07:35:37;43.72;;;19.67;;
57111;SDS011;42992;49.084;19.300;2023-03-04T07:38:02;50.42;;;21.73;;
57111;SDS011;42992;49.084;19.300;2023-03-04T07:40:27;40.33;;;20.42;;
57111;SDS011;42992;49.084;19.300;2023-03-04T07:42:53;47.88;;;21.45;;
57111;SDS011;42992;49.084;19.300;2023-03-04T07:45:19;49.63;;;21.52;;
57111;SDS011;42992;49.084;19.300;2023-03-04T07:47:44;48.50;;;20.63;;
57111;SDS011;42992;49.084;19.300;2023-03-04T07:50:10;48.83;;;21.92;;
57111;SDS011;42992;49.084;19.300;2023-03-04T07:52:44;46.22;;;20.55;;
57111;SDS011;42992;49.084;19.300;2023-03-04T07:55:10;57.33;;;21.05;;
57111;SDS011;42992;49.084;19.300;2023-03-04T07:57:39;49.17;;;22.15;;
57111;SDS011;42992;49.084;19.300;2023-03-04T08:00:05;48.47;;;23.67;;
57111;SDS011;42992;49.084;19.300;2023-03-04T08:02:30;45.00;;;21.80;;
57111;SDS011;42992;49.084;19.300;2023-03-04T08:04:56;49.90;;;21.75;;
57111;SDS011;42992;49.084;19.300;2023-03-04T08:07:22;52.63;;;21.30;;
57111;SDS011;42992;49.084;19.300;2023-03-04T08:09:47;47.70;;;22.80;;
57111;SDS011;42992;49.084;19.300;2023-03-04T08:12:12;47.25;;;21.38;;
57111;SDS011;42992;49.084;19.300;2023-03-04T08:14:38;48.42;;;22.52;;
57111;SDS011;42992;49.084;19.300;2023-03-04T08:17:03;42.72;;;21.08;;
57111;SDS011;42992;49.084;19.300;2023-03-04T08:19:30;47.88;;;21.10;;
57111;SDS011;42992;49.084;19.300;2023-03-04T08:21:55;43.30;;;20.83;;
57111;SDS011;42992;49.084;19.300;2023-03-04T08:24:20;49.60;;;23.70;;
57111;SDS011;42992;49.084;19.300;2023-03-04T08:26:48;56.17;;;24.63;;
57111;SDS011;42992;49.084;19.300;2023-03-04T08:29:15;55.50;;;23.67;;
57111;SDS011;42992;49.084;19.300;2023-03-04T08:31:41;45.30;;;22.58;;
57111;SDS011;42992;49.084;19.300;2023-03-04T08:34:08;55.97;;;23.55;;
57111;SDS011;42992;49.084;19.300;2023-03-04T08:36:34;49.10;;;21.67;;
57111;SDS011;42992;49.084;19.300;2023-03-04T08:39:00;47.13;;;23.90;;
57111;SDS011;42992;49.084;19.300;2023-03-04T08:41:25;54.60;;;23.00;;
57111;SDS011;42992;49.084;19.300;2023-03-04T08:43:51;45.50;;;22.35;;
57111;SDS011;42992;49.084;19.300;2023-03-04T08:46:17;41.85;;;21.15;;
57111;SDS011;42992;49.084;19.300;2023-03-04T08:48:42;49.53;;;22.02;;
57111;SDS011;42992;49.084;19.300;2023-03-04T08:51:11;44.45;;;21.38;;
57111;SDS011;42992;49.084;19.300;2023-03-04T08:53:37;42.30;;;21.13;;
57111;SDS011;42992;49.084;19.300;2023-03-04T08:56:02;50.97;;;21.42;;
57111;SDS011;42992;49.084;19.300;2023-03-04T08:58:28;54.85;;;20.60;;
57111;SDS011;42992;49.084;19.300;2023-03-04T09:00:53;41.60;;;20.80;;
57111;SDS011;42992;49.084;19.300;2023-03-04T09:03:19;48.33;;;19.58;;
57111;SDS011;42992;49.084;19.300;2023-03-04T09:05:45;36.17;;;19.20;;
57111;SDS011;42992;49.084;19.300;2023-03-04T09:08:11;44.83;;;19.85;;
57111;SDS011;42992;49.084;19.300;2023-03-04T09:10:37;40.20;;;19.63;;
57111;SDS011;42992;49.084;19.300;2023-03-04T09:13:02;48.67;;;22.98;;
57111;SDS011;42992;49.084;19.300;2023-03-04T09:15:28;41.10;;;20.30;;
57111;SDS011;42992;49.084;19.300;2023-03-04T09:17:53;38.30;;;18.05;;
57111;SDS011;42992;49.084;19.300;2023-03-04T09:20:19;49.67;;;18.27;;
57111;SDS011;42992;49.084;19.300;2023-03-04T09:22:45;52.47;;;20.00;;
57111;SDS011;42992;49.084;19.300;2023-03-04T09:25:10;48.45;;;18.73;;
57111;SDS011;42992;49.084;19.300;2023-03-04T09:27:37;38.67;;;18.02;;
57111;SDS011;42992;49.084;19.300;2023-03-04T09:30:03;33.95;;;18.00;;
57111;SDS011;42992;49.084;19.300;2023-03-04T09:32:31;34.95;;;17.25;;
57111;SDS011;42992;49.084;19.300;2023-03-04T09:34:57;34.38;;;17.05;;
57111;SDS011;42992;49.084;19.300;2023-03-04T09:37:22;38.05;;;16.55;;
57111;SDS011;42992;49.084;19.300;2023-03-04T09:39:48;26.77;;;15.63;;
57111;SDS011;42992;49.084;19.300;2023-03-04T09:42:17;21.25;;;10.60;;
57111;SDS011;42992;49.084;19.300;2023-03-04T09:44:46;17.20;;;7.30;;
57111;SDS011;42992;49.084;19.300;2023-03-04T09:47:13;16.65;;;7.63;;
57111;SDS011;42992;49.084;19.300;2023-03-04T09:49:41;23.02;;;7.95;;
57111;SDS011;42992;49.084;19.300;2023-03-04T09:52:22;16.60;;;6.88;;
57111;SDS011;42992;49.084;19.300;2023-03-04T10:00:13;16.17;;;7.53;;
57111;SDS011;42992;49.084;19.300;2023-03-04T10:02:51;13.73;;;7.18;;
57111;SDS011;42992;49.084;19.300;2023-03-04T10:05:24;15.13;;;7.45;;
57111;SDS011;42992;49.084;19.300;2023-03-04T10:07:55;15.70;;;6.70;;
57111;SDS011;42992;49.084;19.300;2023-03-04T10:10:24;15.70;;;6.88;;
57111;SDS011;42992;49.084;19.300;2023-03-04T10:12:52;14.43;;;7.40;;
57111;SDS011;42992;49.084;19.300;2023-03-04T10:17:49;12.45;;;6.80;;
57111;SDS011;42992;49.084;19.300;2023-03-04T10:20:18;18.05;;;7.75;;
57111;SDS011;42992;49.084;19.300;2023-03-04T10:22:46;13.02;;;6.68;;
57111;SDS011;42992;49.084;19.300;2023-03-04T10:28:17;14.57;;;6.55;;
57111;SDS011;42992;49.084;19.300;2023-03-04T10:30:52;16.75;;;7.22;;
57111;SDS011;42992;49.084;19.300;2023-03-04T10:33:20;16.65;;;6.90;;
57111;SDS011;42992;49.084;19.300;2023-03-04T10:36:02;14.13;;;7.13;;
57111;SDS011;42992;49.084;19.300;2023-03-04T10:38:29;16.88;;;7.10;;
57111;SDS011;42992;49.084;19.300;2023-03-04T10:40:55;18.98;;;7.72;;
57111;SDS011;42992;49.084;19.300;2023-03-04T10:43:21;15.98;;;7.40;;
57111;SDS011;42992;49.084;19.300;2023-03-04T10:45:47;15.90;;;8.02;;
57111;SDS011;42992;49.084;19.300;2023-03-04T10:48:28;15.05;;;7.30;;
57111;SDS011;42992;49.084;19.300;2023-03-04T10:50:58;19.40;;;7.88;;
57111;SDS011;42992;49.084;19.300;2023-03-04T10:53:38;16.38;;;7.72;;
57111;SDS011;42992;49.084;19.300;2023-03-04T10:56:51;16.80;;;7.57;;
57111;SDS011;42992;49.084;19.300;2023-03-04T10:58:52;18.58;;;7.60;;
57111;SDS011;42992;49.084;19.300;2023-03-04T11:01:17;14.48;;;8.18;;
57111;SDS011;42992;49.084;19.300;2023-03-04T11:03:51;14.90;;;7.38;;
57111;SDS011;42992;49.084;19.300;2023-03-04T11:06:20;13.40;;;7.15;;
57111;SDS011;42992;49.084;19.300;2023-03-04T11:08:54;14.52;;;8.32;;
57111;SDS011;42992;49.084;19.300;2023-03-04T11:11:40;15.25;;;6.53;;
57111;SDS011;42992;49.084;19.300;2023-03-04T11:14:12;18.27;;;8.30;;
57111;SDS011;42992;49.084;19.300;2023-03-04T11:16:39;19.63;;;8.32;;
57111;SDS011;42992;49.084;19.300;2023-03-04T11:19:05;17.88;;;8.07;;
57111;SDS011;42992;49.084;19.300;2023-03-04T11:21:36;15.40;;;7.93;;
57111;SDS011;42992;49.084;19.300;2023-03-04T11:24:03;16.33;;;7.80;;
57111;SDS011;42992;49.084;19.300;2023-03-04T11:29:03;13.20;;;6.90;;
57111;SDS011;42992;49.084;19.300;2023-03-04T11:31:42;15.52;;;7.22;;
57111;SDS011;42992;49.084;19.300;2023-03-04T11:34:14;16.23;;;6.78;;
57111;SDS011;42992;49.084;19.300;2023-03-04T11:36:50;12.18;;;5.53;;
57111;SDS011;42992;49.084;19.300;2023-03-04T11:42:01;13.40;;;6.18;;
57111;SDS011;42992;49.084;19.300;2023-03-04T11:44:29;10.75;;;5.43;;
57111;SDS011;42992;49.084;19.300;2023-03-04T11:47:06;11.85;;;5.95;;
57111;SDS011;42992;49.084;19.300;2023-03-04T11:49:51;11.98;;;6.20;;
57111;SDS011;42992;49.084;19.300;2023-03-04T11:52:23;11.73;;;5.72;;
57111;SDS011;42992;49.084;19.300;2023-03-04T12:11:11;11.63;;;5.70;;
57111;SDS011;42992;49.084;19.300;2023-03-04T12:27:12;9.82;;;5.45;;
57111;SDS011;42992;49.084;19.300;2023-03-04T12:29:48;12.32;;;5.43;;
57111;SDS011;42992;49.084;19.300;2023-03-04T12:32:25;11.43;;;5.78;;
57111;SDS011;42992;49.084;19.300;2023-03-04T12:40:03;12.02;;;5.80;;
57111;SDS011;42992;49.084;19.300;2023-03-04T12:45:14;13.68;;;6.38;;
57111;SDS011;42992;49.084;19.300;2023-03-04T12:47:54;16.30;;;7.25;;
57111;SDS011;42992;49.084;19.300;2023-03-04T12:55:54;12.07;;;5.85;;
57111;SDS011;42992;49.084;19.300;2023-03-04T12:58:20;13.65;;;5.60;;
57111;SDS011;42992;49.084;19.300;2023-03-04T13:00:50;11.60;;;6.25;;
57111;SDS011;42992;49.084;19.300;2023-03-04T13:03:27;13.25;;;6.45;;
57111;SDS011;42992;49.084;19.300;2023-03-04T13:06:09;13.05;;;6.10;;
57111;SDS011;42992;49.084;19.300;2023-03-04T13:18:57;13.23;;;6.15;;
57111;SDS011;42992;49.084;19.300;2023-03-04T13:23:48;12.60;;;6.40;;
57111;SDS011;42992;49.084;19.300;2023-03-04T13:28:42;12.85;;;6.25;;
57111;SDS011;42992;49.084;19.300;2023-03-04T13:35:59;18.77;;;10.10;;
57111;SDS011;42992;49.084;19.300;2023-03-04T13:51:22;23.13;;;12.52;;
57111;SDS011;42992;49.084;19.300;2023-03-04T13:53:49;19.60;;;12.07;;
57111;SDS011;42992;49.084;19.300;2023-03-04T13:58:51;22.50;;;12.63;;
57111;SDS011;42992;49.084;19.300;2023-03-04T14:01:20;23.73;;;13.40;;
57111;SDS011;42992;49.084;19.300;2023-03-04T14:03:47;21.30;;;12.20;;
57111;SDS011;42992;49.084;19.300;2023-03-04T14:08:39;26.75;;;14.30;;
57111;SDS011;42992;49.084;19.300;2023-03-04T14:11:04;23.73;;;13.00;;
57111;SDS011;42992;49.084;19.300;2023-03-04T14:13:29;24.00;;;13.10;;
57111;SDS011;42992;49.084;19.300;2023-03-04T14:15:56;25.85;;;14.50;;
57111;SDS011;42992;49.084;19.300;2023-03-04T14:18:22;24.40;;;14.35;;
57111;SDS011;42992;49.084;19.300;2023-03-04T14:20:52;27.60;;;14.65;;
57111;SDS011;42992;49.084;19.300;2023-03-04T14:26:02;27.27;;;16.20;;
57111;SDS011;42992;49.084;19.300;2023-03-04T14:28:28;31.27;;;16.58;;
57111;SDS011;42992;49.084;19.300;2023-03-04T14:30:55;30.15;;;16.05;;
57111;SDS011;42992;49.084;19.300;2023-03-04T14:33:22;26.83;;;15.63;;
57111;SDS011;42992;49.084;19.300;2023-03-04T14:35:49;28.42;;;16.27;;
57111;SDS011;42992;49.084;19.300;2023-03-04T14:38:25;28.80;;;16.55;;
57111;SDS011;42992;49.084;19.300;2023-03-04T14:40:52;34.70;;;15.65;;
57111;SDS011;42992;49.084;19.300;2023-03-04T14:43:20;29.90;;;16.70;;
57111;SDS011;42992;49.084;19.300;2023-03-04T14:45:49;27.98;;;16.35;;
57111;SDS011;42992;49.084;19.300;2023-03-04T14:48:22;35.42;;;17.38;;
57111;SDS011;42992;49.084;19.300;2023-03-04T14:50:49;29.20;;;16.55;;
57111;SDS011;42992;49.084;19.300;2023-03-04T14:53:17;26.88;;;16.38;;
57111;SDS011;42992;49.084;19.300;2023-03-04T14:58:21;28.73;;;16.27;;
57111;SDS011;42992;49.084;19.300;2023-03-04T15:00:47;29.92;;;17.23;;
57111;SDS011;42992;49.084;19.300;2023-03-04T15:03:23;30.08;;;16.40;;
57111;SDS011;42992;49.084;19.300;2023-03-04T15:05:49;27.67;;;17.17;;
57111;SDS011;42992;49.084;19.300;2023-03-04T15:08:36;28.83;;;16.65;;
57111;SDS011;42992;49.084;19.300;2023-03-04T15:11:05;26.85;;;14.60;;
57111;SDS011;42992;49.084;19.300;2023-03-04T15:13:38;32.33;;;16.17;;
57111;SDS011;42992;49.084;19.300;2023-03-04T15:16:03;28.33;;;16.70;;
57111;SDS011;42992;49.084;19.300;2023-03-04T15:18:29;28.55;;;15.80;;
57111;SDS011;42992;49.084;19.300;2023-03-04T15:20:55;29.13;;;16.42;;
57111;SDS011;42992;49.084;19.300;2023-03-04T15:23:22;26.52;;;15.93;;
57111;SDS011;42992;49.084;19.300;2023-03-04T15:25:52;32.20;;;17.10;;
57111;SDS011;42992;49.084;19.300;2023-03-04T15:28:19;27.27;;;16.15;;
57111;SDS011;42992;49.084;19.300;2023-03-04T15:30:44;26.55;;;16.08;;
57111;SDS011;42992;49.084;19.300;2023-03-04T15:33:10;32.80;;;17.42;;
57111;SDS011;42992;49.084;19.300;2023-03-04T15:35:36;27.45;;;16.27;;
57111;SDS011;42992;49.084;19.300;2023-03-04T15:38:02;29.52;;;15.80;;
57111;SDS011;42992;49.084;19.300;2023-03-04T15:40:31;29.13;;;16.42;;
57111;SDS011;42992;49.084;19.300;2023-03-04T15:42:58;29.60;;;16.13;;
57111;SDS011;42992;49.084;19.300;2023-03-04T15:45:26;28.33;;;15.23;;
57111;SDS011;42992;49.084;19.300;2023-03-04T15:47:52;29.40;;;16.70;;
57111;SDS011;42992;49.084;19.300;2023-03-04T15:50:18;29.38;;;17.23;;
57111;SDS011;42992;49.084;19.300;2023-03-04T15:52:43;34.42;;;17.38;;
57111;SDS011;42992;49.084;19.300;2023-03-04T15:55:13;29.20;;;17.20;;
57111;SDS011;42992;49.084;19.300;2023-03-04T15:57:39;26.92;;;15.48;;
57111;SDS011;42992;49.084;19.300;2023-03-04T16:00:04;30.73;;;16.58;;
57111;SDS011;42992;49.084;19.300;2023-03-04T16:02:30;31.58;;;18.80;;